sensor_id;sensor_type;location;lat;lon;timestamp;pressure;altitude;pressure_sealevel;temperature;humidity
39243;BME280;29823;47.404;8.566;2023-06-04T00:01:12;96291.78;;;16.64;100.00
39243;BME280;29823;47.404;8.566;2023-06-04T00:03:42;96291.25;;;16.57;100.00
39243;BME280;29823;47.404;8.566;2023-06-04T00:06:10;96292.31;;;16.71;100.00
39243;BME280;29823;47.404;8.566;2023-06-04T00:08:38;96273.13;;;16.62;100.00
39243;BME280;29823;47.404;8.566;2023-06-04T00:11:07;96285.28;;;16.65;100.00
39243;BME280;29823;47.404;8.566;2023-06-04T00:13:35;96286.13;;;16.60;100.00
39243;BME280;29823;47.404;8.566;2023-06-04T00:16:04;96283.97;;;16.57;100.00
39243;BME280;29823;47.404;8.566;2023-06-04T00:18:32;96287.75;;;16.51;100.00
39243;BME280;29823;47.404;8.566;2023-06-04T00:21:00;96278.63;;;16.42;100.00
39243;BME280;29823;47.404;8.566;2023-06-04T00:23:27;96281.56;;;16.46;100.00
39243;BME280;29823;47.404;8.566;2023-06-04T00:25:56;96282.41;;;16.41;100.00
39243;BME280;29823;47.404;8.566;2023-06-04T00:28:25;96275.06;;;16.37;100.00
39243;BME280;29823;47.404;8.566;2023-06-04T00:30:53;96271.31;;;16.43;100.00
39243;BME280;29823;47.404;8.566;2023-06-04T00:33:20;96278.88;;;16.31;100.00
39243;BME280;29823;47.404;8.566;2023-06-04T00:35:48;96276.97;;;16.31;100.00
39243;BME280;29823;47.404;8.566;2023-06-04T00:38:16;96284.53;;;16.29;100.00
39243;BME280;29823;47.404;8.566;2023-06-04T00:40:44;96292.34;;;16.36;100.00
39243;BME280;29823;47.404;8.566;2023-06-04T00:43:12;96282.38;;;16.21;100.00
39243;BME280;29823;47.404;8.566;2023-06-04T00:45:41;96284.53;;;16.29;100.00
39243;BME280;29823;47.404;8.566;2023-06-04T00:48:10;96280.72;;;16.35;100.00
39243;BME280;29823;47.404;8.566;2023-06-04T00:50:37;96278.88;;;16.16;100.00
39243;BME280;29823;47.404;8.566;2023-06-04T00:53:06;96279.97;;;16.05;100.00
39243;BME280;29823;47.404;8.566;2023-06-04T00:55:34;96282.13;;;15.93;100.00
39243;BME280;29823;47.404;8.566;2023-06-04T00:58:02;96295.34;;;15.89;100.00
39243;BME280;29823;47.404;8.566;2023-06-04T01:00:30;96282.41;;;15.81;100.00
39243;BME280;29823;47.404;8.566;2023-06-04T01:03:04;96281.03;;;15.79;100.00
39243;BME280;29823;47.404;8.566;2023-06-04T01:05:40;96258.69;;;15.63;100.00
39243;BME280;29823;47.404;8.566;2023-06-04T01:08:11;96287.78;;;15.91;100.00
39243;BME280;29823;47.404;8.566;2023-06-04T01:10:50;96278.66;;;15.87;100.00
39243;BME280;29823;47.404;8.566;2023-06-04T01:13:18;96286.16;;;15.75;100.00
39243;BME280;29823;47.404;8.566;2023-06-04T01:15:45;96294.78;;;15.92;100.00
39243;BME280;29823;47.404;8.566;2023-06-04T01:18:16;96289.41;;;15.92;100.00
39243;BME280;29823;47.404;8.566;2023-06-04T01:20:57;96289.44;;;15.82;100.00
39243;BME280;29823;47.404;8.566;2023-06-04T01:23:31;96291.31;;;15.87;100.00
39243;BME280;29823;47.404;8.566;2023-06-04T01:26:01;96282.41;;;15.81;100.00
39243;BME280;29823;47.404;8.566;2023-06-04T01:28:30;96291.28;;;15.57;100.00
39243;BME280;29823;47.404;8.566;2023-06-04T01:31:00;96298.78;;;15.40;100.00
39243;BME280;29823;47.404;8.566;2023-06-04T01:33:30;96301.78;;;15.48;100.00
39243;BME280;29823;47.404;8.566;2023-06-04T01:35:58;96296.66;;;15.52;100.00
39243;BME280;29823;47.404;8.566;2023-06-04T01:38:26;96285.88;;;15.42;100.00
39243;BME280;29823;47.404;8.566;2023-06-04T01:40:54;96288.88;;;15.55;100.00
39243;BME280;29823;47.404;8.566;2023-06-04T01:43:27;96288.59;;;15.62;100.00
39243;BME280;29823;47.404;8.566;2023-06-04T01:45:56;96294.81;;;15.72;100.00
39243;BME280;29823;47.404;8.566;2023-06-04T01:48:24;96303.97;;;15.66;100.00
39243;BME280;29823;47.404;8.566;2023-06-04T01:50:54;96297.50;;;15.67;100.00
39243;BME280;29823;47.404;8.566;2023-06-04T01:53:21;96296.38;;;15.53;100.00
39243;BME280;29823;47.404;8.566;2023-06-04T01:55:49;96300.97;;;15.43;100.00
39243;BME280;29823;47.404;8.566;2023-06-04T01:58:17;96301.22;;;15.41;100.00
39243;BME280;29823;47.404;8.566;2023-06-04T02:00:49;96311.50;;;15.49;100.00
39243;BME280;29823;47.404;8.566;2023-06-04T02:03:19;96315.81;;;15.55;100.00
39243;BME280;29823;47.404;8.566;2023-06-04T02:05:48;96313.63;;;15.52;100.00
39243;BME280;29823;47.404;8.566;2023-06-04T02:08:17;96317.69;;;15.55;100.00
39243;BME280;29823;47.404;8.566;2023-06-04T02:10:46;96311.50;;;15.49;100.00
39243;BME280;29823;47.404;8.566;2023-06-04T02:13:15;96313.09;;;15.40;100.00
39243;BME280;29823;47.404;8.566;2023-06-04T02:15:43;96323.03;;;15.40;100.00
39243;BME280;29823;47.404;8.566;2023-06-04T02:18:13;96314.94;;;15.40;100.00
39243;BME280;29823;47.404;8.566;2023-06-04T02:20:43;96316.88;;;15.44;100.00
39243;BME280;29823;47.404;8.566;2023-06-04T02:23:12;96320.31;;;15.35;100.00
39243;BME280;29823;47.404;8.566;2023-06-04T02:25:41;96314.63;;;15.31;100.00
39243;BME280;29823;47.404;8.566;2023-06-04T02:28:11;96317.88;;;15.28;100.00
39243;BME280;29823;47.404;8.566;2023-06-04T02:30:39;96319.56;;;15.39;100.00
39243;BME280;29823;47.404;8.566;2023-06-04T02:33:07;96318.41;;;15.30;100.00
39243;BME280;29823;47.404;8.566;2023-06-04T02:35:36;96310.31;;;15.25;100.00
39243;BME280;29823;47.404;8.566;2023-06-04T02:38:04;96313.88;;;15.36;100.00
39243;BME280;29823;47.404;8.566;2023-06-04T02:40:32;96316.31;;;15.42;100.00
39243;BME280;29823;47.404;8.566;2023-06-04T02:43:02;96320.25;;;15.25;100.00
39243;BME280;29823;47.404;8.566;2023-06-04T02:45:29;96320.28;;;15.20;100.00
39243;BME280;29823;47.404;8.566;2023-06-04T02:47:57;96321.59;;;15.22;100.00
39243;BME280;29823;47.404;8.566;2023-06-04T02:50:25;96321.88;;;15.16;100.00
39243;BME280;29823;47.404;8.566;2023-06-04T02:52:53;96315.44;;;15.27;100.00
39243;BME280;29823;47.404;8.566;2023-06-04T02:55:21;96323.25;;;15.23;100.00
39243;BME280;29823;47.404;8.566;2023-06-04T02:57:48;96306.72;;;15.00;100.00
39243;BME280;29823;47.404;8.566;2023-06-04T03:00:19;96333.41;;;15.06;100.00
39243;BME280;29823;47.404;8.566;2023-06-04T03:02:47;96332.84;;;14.99;100.00
39243;BME280;29823;47.404;8.566;2023-06-04T03:05:16;96329.03;;;14.95;100.00
39243;BME280;29823;47.404;8.566;2023-06-04T03:07:46;96314.31;;;15.13;100.00
39243;BME280;29823;47.404;8.566;2023-06-04T03:10:15;96320.56;;;15.28;100.00
39243;BME280;29823;47.404;8.566;2023-06-04T03:12:43;96331.81;;;15.10;100.00
39243;BME280;29823;47.404;8.566;2023-06-04T03:15:11;96337.75;;;15.12;100.00
39243;BME280;29823;47.404;8.566;2023-06-04T03:17:41;96328.03;;;15.11;100.00
39243;BME280;29823;47.404;8.566;2023-06-04T03:20:10;96334.81;;;15.29;100.00
39243;BME280;29823;47.404;8.566;2023-06-04T03:22:38;96342.28;;;15.07;100.00
39243;BME280;29823;47.404;8.566;2023-06-04T03:25:07;96345.59;;;15.29;100.00
39243;BME280;29823;47.404;8.566;2023-06-04T03:27:35;96348.91;;;15.36;100.00
39243;BME280;29823;47.404;8.566;2023-06-04T03:30:03;96350.53;;;15.42;100.00
39243;BME280;29823;47.404;8.566;2023-06-04T03:32:31;96349.09;;;15.19;100.00
39243;BME280;29823;47.404;8.566;2023-06-04T03:35:00;96348.31;;;15.29;100.00
39243;BME280;29823;47.404;8.566;2023-06-04T03:37:30;96352.13;;;15.38;100.00
39243;BME280;29823;47.404;8.566;2023-06-04T03:39:59;96358.06;;;15.45;100.00
39243;BME280;29823;47.404;8.566;2023-06-04T03:42:28;96361.84;;;15.44;100.00
39243;BME280;29823;47.404;8.566;2023-06-04T03:44:56;96371.34;;;15.61;100.00
39243;BME280;29823;47.404;8.566;2023-06-04T03:47:24;96375.94;;;15.71;100.00
39243;BME280;29823;47.404;8.566;2023-06-04T03:49:52;96376.47;;;15.58;100.00
39243;BME280;29823;47.404;8.566;2023-06-04T03:52:21;96376.16;;;15.59;100.00
39243;BME280;29823;47.404;8.566;2023-06-04T03:54:49;96372.72;;;15.74;100.00
39243;BME280;29823;47.404;8.566;2023-06-04T03:57:17;96374.06;;;15.76;100.00
39243;BME280;29823;47.404;8.566;2023-06-04T03:59:45;96377.25;;;15.63;100.00
39243;BME280;29823;47.404;8.566;2023-06-04T04:02:13;96377.81;;;15.70;100.00
39243;BME280;29823;47.404;8.566;2023-06-04T04:04:41;96376.25;;;15.89;100.00
39243;BME280;29823;47.404;8.566;2023-06-04T04:07:08;96385.41;;;15.78;100.00
39243;BME280;29823;47.404;8.566;2023-06-04T04:09:38;96378.09;;;15.64;100.00
39243;BME280;29823;47.404;8.566;2023-06-04T04:12:06;96373.00;;;15.87;100.00
39243;BME280;29823;47.404;8.566;2023-06-04T04:14:34;96382.44;;;16.00;100.00
39243;BME280;29823;47.404;8.566;2023-06-04T04:17:02;96383.00;;;16.07;100.00
39243;BME280;29823;47.404;8.566;2023-06-04T04:19:30;96384.38;;;16.04;100.00
39243;BME280;29823;47.404;8.566;2023-06-04T04:21:58;96375.69;;;15.92;100.00
39243;BME280;29823;47.404;8.566;2023-06-04T04:24:27;96378.38;;;15.92;100.00
39243;BME280;29823;47.404;8.566;2023-06-04T04:26:56;96371.38;;;15.96;100.00
39243;BME280;29823;47.404;8.566;2023-06-04T04:29:25;96381.38;;;15.96;100.00
39243;BME280;29823;47.404;8.566;2023-06-04T04:31:54;96382.16;;;15.81;100.00
39243;BME280;29823;47.404;8.566;2023-06-04T04:34:26;96373.56;;;16.04;100.00
39243;BME280;29823;47.404;8.566;2023-06-04T04:36:54;96375.47;;;16.19;100.00
39243;BME280;29823;47.404;8.566;2023-06-04T04:39:23;96386.25;;;16.49;100.00
39243;BME280;29823;47.404;8.566;2023-06-04T04:41:51;96386.25;;;16.59;100.00
39243;BME280;29823;47.404;8.566;2023-06-04T04:44:21;96393.00;;;16.61;100.00
39243;BME280;29823;47.404;8.566;2023-06-04T04:46:48;96392.16;;;16.76;100.00
39243;BME280;29823;47.404;8.566;2023-06-04T04:49:16;96395.16;;;16.84;100.00
39243;BME280;29823;47.404;8.566;2023-06-04T04:51:44;96400.25;;;16.91;100.00
39243;BME280;29823;47.404;8.566;2023-06-04T04:54:12;96401.34;;;16.95;100.00
39243;BME280;29823;47.404;8.566;2023-06-04T04:56:40;96408.06;;;17.02;100.00
39243;BME280;29823;47.404;8.566;2023-06-04T04:59:08;96405.03;;;17.19;100.00
39243;BME280;29823;47.404;8.566;2023-06-04T05:01:37;96404.72;;;17.30;100.00
39243;BME280;29823;47.404;8.566;2023-06-04T05:04:05;96406.06;;;17.48;100.00
39243;BME280;29823;47.404;8.566;2023-06-04T05:06:36;96406.84;;;17.48;100.00
39243;BME280;29823;47.404;8.566;2023-06-04T05:09:05;96409.84;;;17.47;100.00
39243;BME280;29823;47.404;8.566;2023-06-04T05:11:34;96420.34;;;17.53;100.00
39243;BME280;29823;47.404;8.566;2023-06-04T05:14:02;96412.00;;;17.35;100.00
39243;BME280;29823;47.404;8.566;2023-06-04T05:16:30;96417.63;;;17.58;100.00
39243;BME280;29823;47.404;8.566;2023-06-04T05:18:59;96422.44;;;17.71;100.00
39243;BME280;29823;47.404;8.566;2023-06-04T05:21:27;96409.94;;;17.80;100.00
39243;BME280;29823;47.404;8.566;2023-06-04T05:23:55;96421.63;;;17.71;100.00
39243;BME280;29823;47.404;8.566;2023-06-04T05:26:23;96414.84;;;17.73;100.00
39243;BME280;29823;47.404;8.566;2023-06-04T05:28:52;96424.50;;;17.89;100.00
39243;BME280;29823;47.404;8.566;2023-06-04T05:31:22;96417.50;;;17.83;100.00
39243;BME280;29823;47.404;8.566;2023-06-04T05:33:53;96421.31;;;17.82;100.00
39243;BME280;29823;47.404;8.566;2023-06-04T05:36:22;96427.13;;;18.04;100.00
39243;BME280;29823;47.404;8.566;2023-06-04T05:38:50;96425.13;;;18.20;100.00
39243;BME280;29823;47.404;8.566;2023-06-04T05:41:24;96431.13;;;17.63;100.00
39243;BME280;29823;47.404;8.566;2023-06-04T05:43:52;96424.72;;;17.44;100.00
39243;BME280;29823;47.404;8.566;2023-06-04T05:46:22;96430.25;;;17.73;100.00
39243;BME280;29823;47.404;8.566;2023-06-04T05:48:50;96431.56;;;17.80;100.00
39243;BME280;29823;47.404;8.566;2023-06-04T05:51:18;96426.63;;;17.97;100.00
39243;BME280;29823;47.404;8.566;2023-06-04T05:53:48;96428.75;;;18.05;100.00
39243;BME280;29823;47.404;8.566;2023-06-04T05:56:15;96429.94;;;17.84;100.00
39243;BME280;29823;47.404;8.566;2023-06-04T05:58:43;96431.47;;;18.00;100.00
39243;BME280;29823;47.404;8.566;2023-06-04T06:01:13;96420.59;;;18.10;100.00
39243;BME280;29823;47.404;8.566;2023-06-04T06:03:41;96431.84;;;17.84;100.00
39243;BME280;29823;47.404;8.566;2023-06-04T06:06:09;96436.59;;;18.02;100.00
39243;BME280;29823;47.404;8.566;2023-06-04T06:08:37;96445.22;;;17.55;100.00
39243;BME280;29823;47.404;8.566;2023-06-04T06:11:08;96433.94;;;17.43;100.00
39243;BME280;29823;47.404;8.566;2023-06-04T06:13:37;96443.63;;;17.54;100.00
39243;BME280;29823;47.404;8.566;2023-06-04T06:16:05;96448.41;;;17.67;100.00
39243;BME280;29823;47.404;8.566;2023-06-04T06:18:33;96447.22;;;17.20;100.00
39243;BME280;29823;47.404;8.566;2023-06-04T06:21:01;96448.75;;;17.51;100.00
39243;BME280;29823;47.404;8.566;2023-06-04T06:23:28;96451.25;;;17.27;100.00
39243;BME280;29823;47.404;8.566;2023-06-04T06:25:56;96448.53;;;17.27;100.00
39243;BME280;29823;47.404;8.566;2023-06-04T06:28:26;96456.09;;;17.20;100.00
39243;BME280;29823;47.404;8.566;2023-06-04T06:30:54;96459.38;;;17.12;100.00
39243;BME280;29823;47.404;8.566;2023-06-04T06:33:22;96460.38;;;17.36;100.00
39243;BME280;29823;47.404;8.566;2023-06-04T06:35:50;96466.63;;;17.27;100.00
39243;BME280;29823;47.404;8.566;2023-06-04T06:38:18;96465.81;;;17.41;100.00
39243;BME280;29823;47.404;8.566;2023-06-04T06:40:45;96459.28;;;17.37;100.00
39243;BME280;29823;47.404;8.566;2023-06-04T06:43:14;96467.41;;;17.32;100.00
39243;BME280;29823;47.404;8.566;2023-06-04T06:45:43;96467.44;;;17.42;100.00
39243;BME280;29823;47.404;8.566;2023-06-04T06:48:11;96473.97;;;17.11;100.00
39243;BME280;29823;47.404;8.566;2023-06-04T06:50:38;96465.88;;;17.01;100.00
39243;BME280;29823;47.404;8.566;2023-06-04T06:53:06;96472.31;;;17.25;100.00
39243;BME280;29823;47.404;8.566;2023-06-04T06:55:34;96472.88;;;17.12;100.00
39243;BME280;29823;47.404;8.566;2023-06-04T06:58:02;96478.53;;;17.26;100.00
39243;BME280;29823;47.404;8.566;2023-06-04T07:00:30;96477.44;;;17.22;100.00
39243;BME280;29823;47.404;8.566;2023-06-04T07:02:59;96466.91;;;17.25;100.00
39243;BME280;29823;47.404;8.566;2023-06-04T07:05:27;96468.50;;;17.36;100.00
39243;BME280;29823;47.404;8.566;2023-06-04T07:07:55;96462.56;;;17.49;100.00
39243;BME280;29823;47.404;8.566;2023-06-04T07:10:23;96463.56;;;17.68;100.00
39243;BME280;29823;47.404;8.566;2023-06-04T07:12:52;96461.59;;;17.84;100.00
39243;BME280;29823;47.404;8.566;2023-06-04T07:15:20;96468.44;;;17.66;100.00
39243;BME280;29823;47.404;8.566;2023-06-04T07:17:48;96465.47;;;17.63;100.00
39243;BME280;29823;47.404;8.566;2023-06-04T07:20:17;96459.22;;;17.67;100.00
39243;BME280;29823;47.404;8.566;2023-06-04T07:22:45;96470.00;;;17.82;100.00
39243;BME280;29823;47.404;8.566;2023-06-04T07:25:14;96470.56;;;17.69;100.00
39243;BME280;29823;47.404;8.566;2023-06-04T07:27:42;96463.97;;;17.90;100.00
39243;BME280;29823;47.404;8.566;2023-06-04T07:30:10;96460.56;;;18.18;100.00
39243;BME280;29823;47.404;8.566;2023-06-04T07:32:38;96470.56;;;18.28;100.00
39243;BME280;29823;47.404;8.566;2023-06-04T07:35:07;96467.28;;;18.36;100.00
39243;BME280;29823;47.404;8.566;2023-06-04T07:37:36;96455.69;;;19.26;100.00
39243;BME280;29823;47.404;8.566;2023-06-04T07:40:05;96454.53;;;20.39;100.00
39243;BME280;29823;47.404;8.566;2023-06-04T07:42:33;96448.53;;;20.42;100.00
39243;BME280;29823;47.404;8.566;2023-06-04T07:45:01;96450.16;;;20.94;98.86
39243;BME280;29823;47.404;8.566;2023-06-04T07:47:29;96450.78;;;21.04;100.00
39243;BME280;29823;47.404;8.566;2023-06-04T07:49:57;96453.38;;;20.45;99.21
39243;BME280;29823;47.404;8.566;2023-06-04T07:52:29;96448.66;;;20.32;100.00
39243;BME280;29823;47.404;8.566;2023-06-04T07:54:59;96443.44;;;21.91;91.54
39243;BME280;29823;47.404;8.566;2023-06-04T07:57:27;96448.84;;;21.50;90.91
39243;BME280;29823;47.404;8.566;2023-06-04T07:59:55;96443.44;;;21.77;86.08
39243;BME280;29823;47.404;8.566;2023-06-04T08:02:24;96447.25;;;22.03;82.21
39243;BME280;29823;47.404;8.566;2023-06-04T08:04:52;96429.97;;;23.01;75.77
39243;BME280;29823;47.404;8.566;2023-06-04T08:07:20;96439.75;;;23.93;69.81
39243;BME280;29823;47.404;8.566;2023-06-04T08:09:48;96438.34;;;24.04;68.46
39243;BME280;29823;47.404;8.566;2023-06-04T08:12:17;96438.44;;;24.72;62.27
39243;BME280;29823;47.404;8.566;2023-06-04T08:14:45;96439.66;;;24.15;64.87
39243;BME280;29823;47.404;8.566;2023-06-04T08:17:13;96440.34;;;24.55;64.73
39243;BME280;29823;47.404;8.566;2023-06-04T08:19:41;96433.63;;;24.69;64.16
39243;BME280;29823;47.404;8.566;2023-06-04T08:22:10;96431.81;;;24.56;65.45
39243;BME280;29823;47.404;8.566;2023-06-04T08:24:39;96432.47;;;24.96;64.14
39243;BME280;29823;47.404;8.566;2023-06-04T08:27:09;96435.16;;;25.76;60.62
39243;BME280;29823;47.404;8.566;2023-06-04T08:29:38;96431.88;;;25.91;60.11
39243;BME280;29823;47.404;8.566;2023-06-04T08:32:06;96445.59;;;25.45;59.17
39243;BME280;29823;47.404;8.566;2023-06-04T08:34:35;96442.69;;;26.45;54.50
39243;BME280;29823;47.404;8.566;2023-06-04T08:37:03;96444.63;;;25.95;55.47
39243;BME280;29823;47.404;8.566;2023-06-04T08:39:31;96438.44;;;27.30;50.98
39243;BME280;29823;47.404;8.566;2023-06-04T08:42:03;96433.19;;;26.43;53.48
39243;BME280;29823;47.404;8.566;2023-06-04T08:44:31;96442.44;;;26.30;54.50
39243;BME280;29823;47.404;8.566;2023-06-04T08:47:03;96434.56;;;25.99;55.31
39243;BME280;29823;47.404;8.566;2023-06-04T08:49:34;96438.84;;;27.52;50.98
39243;BME280;29823;47.404;8.566;2023-06-04T08:52:04;96440.63;;;27.16;51.94
39243;BME280;29823;47.404;8.566;2023-06-04T08:54:33;96438.53;;;26.39;52.87
39243;BME280;29823;47.404;8.566;2023-06-04T08:57:01;96442.56;;;26.42;52.17
39243;BME280;29823;47.404;8.566;2023-06-04T08:59:29;96447.34;;;25.95;53.93
39243;BME280;29823;47.404;8.566;2023-06-04T09:01:58;96438.56;;;25.01;56.36
39243;BME280;29823;47.404;8.566;2023-06-04T09:04:29;96459.94;;;24.48;57.55
39243;BME280;29823;47.404;8.566;2023-06-04T09:07:01;96446.53;;;24.04;61.32
39243;BME280;29823;47.404;8.566;2023-06-04T09:09:31;96453.69;;;23.83;59.89
39243;BME280;29823;47.404;8.566;2023-06-04T09:12:01;96448.88;;;23.80;62.07
39243;BME280;29823;47.404;8.566;2023-06-04T09:14:31;96453.09;;;23.25;62.58
39243;BME280;29823;47.404;8.566;2023-06-04T09:16:59;96448.66;;;24.07;62.57
39243;BME280;29823;47.404;8.566;2023-06-04T09:19:28;96443.16;;;23.90;61.84
39243;BME280;29823;47.404;8.566;2023-06-04T09:21:57;96451.13;;;22.95;64.58
39243;BME280;29823;47.404;8.566;2023-06-04T09:24:38;96450.53;;;23.20;65.15
39243;BME280;29823;47.404;8.566;2023-06-04T09:27:11;96456.81;;;23.07;70.72
39243;BME280;29823;47.404;8.566;2023-06-04T09:29:39;96453.13;;;24.03;66.61
39243;BME280;29823;47.404;8.566;2023-06-04T09:32:07;96449.88;;;23.23;65.39
39243;BME280;29823;47.404;8.566;2023-06-04T09:34:36;96439.41;;;22.95;67.31
39243;BME280;29823;47.404;8.566;2023-06-04T09:37:14;96443.53;;;23.14;67.60
39243;BME280;29823;47.404;8.566;2023-06-04T09:39:42;96447.63;;;22.10;71.29
39243;BME280;29823;47.404;8.566;2023-06-04T09:42:10;96449.25;;;22.60;68.70
39243;BME280;29823;47.404;8.566;2023-06-04T09:44:43;96448.16;;;22.61;70.03
39243;BME280;29823;47.404;8.566;2023-06-04T09:47:12;96439.50;;;22.46;69.34
39243;BME280;29823;47.404;8.566;2023-06-04T09:49:42;96454.94;;;23.16;69.60
39243;BME280;29823;47.404;8.566;2023-06-04T09:52:10;96450.94;;;22.92;70.79
39243;BME280;29823;47.404;8.566;2023-06-04T09:54:40;96441.94;;;22.47;71.08
39243;BME280;29823;47.404;8.566;2023-06-04T09:57:14;96442.56;;;23.32;66.92
39243;BME280;29823;47.404;8.566;2023-06-04T09:59:44;96443.16;;;23.29;66.32
39243;BME280;29823;47.404;8.566;2023-06-04T10:02:13;96441.75;;;22.88;64.39
39243;BME280;29823;47.404;8.566;2023-06-04T10:04:49;96445.34;;;23.49;65.04
39243;BME280;29823;47.404;8.566;2023-06-04T10:07:17;96445.78;;;22.90;64.01
39243;BME280;29823;47.404;8.566;2023-06-04T10:09:45;96458.69;;;22.27;67.97
39243;BME280;29823;47.404;8.566;2023-06-04T10:12:16;96448.41;;;22.73;65.66
39243;BME280;29823;47.404;8.566;2023-06-04T10:14:49;96445.22;;;23.54;65.71
39243;BME280;29823;47.404;8.566;2023-06-04T10:17:22;96442.09;;;23.39;66.50
39243;BME280;29823;47.404;8.566;2023-06-04T10:19:53;96438.53;;;24.25;63.97
39243;BME280;29823;47.404;8.566;2023-06-04T10:22:21;96424.75;;;24.55;59.26
39243;BME280;29823;47.404;8.566;2023-06-04T10:24:49;96431.81;;;24.48;59.24
39243;BME280;29823;47.404;8.566;2023-06-04T10:27:17;96421.06;;;24.51;58.58
39243;BME280;29823;47.404;8.566;2023-06-04T10:29:46;96423.63;;;23.75;60.68
39243;BME280;29823;47.404;8.566;2023-06-04T10:32:15;96425.53;;;23.66;63.93
39243;BME280;29823;47.404;8.566;2023-06-04T10:34:43;96425.22;;;24.57;60.54
39243;BME280;29823;47.404;8.566;2023-06-04T10:37:20;96425.03;;;25.30;56.72
39243;BME280;29823;47.404;8.566;2023-06-04T10:39:51;96427.53;;;26.68;54.22
39243;BME280;29823;47.404;8.566;2023-06-04T10:42:20;96417.13;;;27.27;50.94
39243;BME280;29823;47.404;8.566;2023-06-04T10:44:50;96426.16;;;28.44;51.43
39243;BME280;29823;47.404;8.566;2023-06-04T10:47:23;96409.81;;;28.75;47.78
39243;BME280;29823;47.404;8.566;2023-06-04T10:49:52;96413.03;;;28.01;49.26
39243;BME280;29823;47.404;8.566;2023-06-04T10:52:22;96413.63;;;27.50;50.83
39243;BME280;29823;47.404;8.566;2023-06-04T10:54:49;96395.34;;;29.48;45.77
39243;BME280;29823;47.404;8.566;2023-06-04T10:57:20;96387.84;;;28.63;49.63
39243;BME280;29823;47.404;8.566;2023-06-04T10:59:54;96389.28;;;28.72;47.24
39243;BME280;29823;47.404;8.566;2023-06-04T11:02:22;96385.59;;;27.12;50.02
39243;BME280;29823;47.404;8.566;2023-06-04T11:04:59;96399.63;;;28.63;47.92
39243;BME280;29823;47.404;8.566;2023-06-04T11:07:40;96391.00;;;29.04;46.57
39243;BME280;29823;47.404;8.566;2023-06-04T11:10:10;96393.84;;;30.28;43.50
39243;BME280;29823;47.404;8.566;2023-06-04T11:12:42;96400.00;;;29.60;42.52
39243;BME280;29823;47.404;8.566;2023-06-04T11:15:10;96390.94;;;28.89;43.75
39243;BME280;29823;47.404;8.566;2023-06-04T11:17:48;96393.34;;;30.42;39.96
39243;BME280;29823;47.404;8.566;2023-06-04T11:20:17;96395.31;;;32.00;36.51
39243;BME280;29823;47.404;8.566;2023-06-04T11:22:55;96396.97;;;32.05;36.18
39243;BME280;29823;47.404;8.566;2023-06-04T11:25:23;96389.22;;;31.69;36.64
39243;BME280;29823;47.404;8.566;2023-06-04T11:27:53;96396.66;;;30.32;36.17
39243;BME280;29823;47.404;8.566;2023-06-04T11:30:22;96387.53;;;32.61;34.43
39243;BME280;29823;47.404;8.566;2023-06-04T11:32:50;96373.06;;;33.04;33.50
39243;BME280;29823;47.404;8.566;2023-06-04T11:35:27;96389.84;;;31.81;35.33
39243;BME280;29823;47.404;8.566;2023-06-04T11:37:58;96393.28;;;33.05;34.45
39243;BME280;29823;47.404;8.566;2023-06-04T11:40:26;96391.28;;;33.38;34.03
39243;BME280;29823;47.404;8.566;2023-06-04T11:42:54;96372.53;;;31.01;34.86
39243;BME280;29823;47.404;8.566;2023-06-04T11:45:23;96395.00;;;31.83;32.55
39243;BME280;29823;47.404;8.566;2023-06-04T11:47:54;96387.16;;;32.33;32.95
39243;BME280;29823;47.404;8.566;2023-06-04T11:50:23;96377.34;;;32.69;33.86
39243;BME280;29823;47.404;8.566;2023-06-04T11:52:54;96377.94;;;33.14;32.12
39243;BME280;29823;47.404;8.566;2023-06-04T11:55:24;96372.25;;;33.33;31.92
39243;BME280;29823;47.404;8.566;2023-06-04T11:57:53;96362.09;;;32.52;33.53
39243;BME280;29823;47.404;8.566;2023-06-04T12:00:21;96362.47;;;32.77;32.77
39243;BME280;29823;47.404;8.566;2023-06-04T12:02:51;96364.19;;;33.58;31.04
39243;BME280;29823;47.404;8.566;2023-06-04T12:05:22;96349.00;;;33.48;29.88
39243;BME280;29823;47.404;8.566;2023-06-04T12:07:51;96365.31;;;33.17;30.68
39243;BME280;29823;47.404;8.566;2023-06-04T12:10:20;96365.28;;;33.13;30.90
39243;BME280;29823;47.404;8.566;2023-06-04T12:12:54;96359.81;;;34.58;30.72
39243;BME280;29823;47.404;8.566;2023-06-04T12:15:22;96361.38;;;33.21;31.33
39243;BME280;29823;47.404;8.566;2023-06-04T12:17:50;96350.94;;;33.81;29.99
39243;BME280;29823;47.404;8.566;2023-06-04T12:20:19;96359.59;;;34.26;29.11
39243;BME280;29823;47.404;8.566;2023-06-04T12:22:58;96351.78;;;31.97;30.27
39243;BME280;29823;47.404;8.566;2023-06-04T12:25:29;96356.66;;;32.59;30.11
39243;BME280;29823;47.404;8.566;2023-06-04T12:27:59;96362.66;;;32.35;30.21
39243;BME280;29823;47.404;8.566;2023-06-04T12:30:35;96338.25;;;31.44;30.65
39243;BME280;29823;47.404;8.566;2023-06-04T12:33:03;96350.84;;;33.30;28.87
39243;BME280;29823;47.404;8.566;2023-06-04T12:35:31;96352.91;;;33.80;27.79
39243;BME280;29823;47.404;8.566;2023-06-04T12:37:59;96339.84;;;33.84;26.80
39243;BME280;29823;47.404;8.566;2023-06-04T12:40:27;96342.09;;;32.95;32.10
39243;BME280;29823;47.404;8.566;2023-06-04T12:42:55;96343.44;;;35.31;28.64
39243;BME280;29823;47.404;8.566;2023-06-04T12:45:24;96341.81;;;34.34;27.40
39243;BME280;29823;47.404;8.566;2023-06-04T12:47:52;96348.66;;;33.93;28.17
39243;BME280;29823;47.404;8.566;2023-06-04T12:50:20;96353.63;;;30.12;31.46
39243;BME280;29823;47.404;8.566;2023-06-04T12:52:48;96337.03;;;28.88;34.08
39243;BME280;29823;47.404;8.566;2023-06-04T12:55:16;96341.72;;;28.99;34.96
39243;BME280;29823;47.404;8.566;2023-06-04T12:57:46;96334.81;;;28.93;34.57
39243;BME280;29823;47.404;8.566;2023-06-04T13:00:16;96346.16;;;28.37;37.74
39243;BME280;29823;47.404;8.566;2023-06-04T13:02:45;96339.84;;;31.03;32.16
39243;BME280;29823;47.404;8.566;2023-06-04T13:05:13;96331.91;;;31.88;29.36